sensor_id;sensor_type;location;lat;lon;timestamp;P1;durP1;ratioP1;P2;durP2;ratioP2
77838;SDS011;67034;43.226;27.932;2023-02-28T00:03:30;4.20;;;3.05;;
77838;SDS011;67034;43.226;27.932;2023-02-28T00:06:00;4.68;;;3.08;;
77838;SDS011;67034;43.226;27.932;2023-02-28T00:08:28;4.40;;;2.78;;
77838;SDS011;67034;43.226;27.932;2023-02-28T00:10:53;4.32;;;2.83;;
77838;SDS011;67034;43.226;27.932;2023-02-28T00:15:45;3.83;;;2.58;;
77838;SDS011;67034;43.226;27.932;2023-02-28T00:20:36;4.50;;;3.10;;
77838;SDS011;67034;43.226;27.932;2023-02-28T00:25:29;4.50;;;2.83;;
77838;SDS011;67034;43.226;27.932;2023-02-28T00:27:55;4.85;;;3.08;;
77838;SDS011;67034;43.226;27.932;2023-02-28T00:32:47;4.57;;;3.25;;
77838;SDS011;67034;43.226;27.932;2023-02-28T00:37:38;4.68;;;2.97;;
77838;SDS011;67034;43.226;27.932;2023-02-28T00:42:32;5.55;;;3.55;;
77838;SDS011;67034;43.226;27.932;2023-02-28T00:44:58;6.22;;;3.30;;
77838;SDS011;67034;43.226;27.932;2023-02-28T00:47:25;4.03;;;2.92;;
77838;SDS011;67034;43.226;27.932;2023-02-28T00:52:16;4.32;;;3.00;;
77838;SDS011;67034;43.226;27.932;2023-02-28T00:57:07;4.07;;;2.90;;
77838;SDS011;67034;43.226;27.932;2023-02-28T01:02:00;5.63;;;3.28;;
77838;SDS011;67034;43.226;27.932;2023-02-28T01:06:51;5.47;;;3.33;;
77838;SDS011;67034;43.226;27.932;2023-02-28T01:11:42;6.60;;;4.55;;
77838;SDS011;67034;43.226;27.932;2023-02-28T01:14:10;7.07;;;3.95;;
77838;SDS011;67034;43.226;27.932;2023-02-28T01:16:39;6.28;;;4.38;;
77838;SDS011;67034;43.226;27.932;2023-02-28T01:19:05;6.00;;;4.72;;
77838;SDS011;67034;43.226;27.932;2023-02-28T01:23:56;5.88;;;3.40;;
77838;SDS011;67034;43.226;27.932;2023-02-28T01:26:22;4.82;;;3.25;;
77838;SDS011;67034;43.226;27.932;2023-02-28T01:36:09;4.80;;;3.65;;
77838;SDS011;67034;43.226;27.932;2023-02-28T01:38:36;6.78;;;4.53;;
77838;SDS011;67034;43.226;27.932;2023-02-28T01:43:28;6.18;;;4.35;;
77838;SDS011;67034;43.226;27.932;2023-02-28T01:45:55;5.68;;;4.20;;
77838;SDS011;67034;43.226;27.932;2023-02-28T01:48:23;6.88;;;4.25;;
77838;SDS011;67034;43.226;27.932;2023-02-28T01:50:52;6.32;;;4.18;;
77838;SDS011;67034;43.226;27.932;2023-02-28T01:53:23;6.00;;;4.13;;
77838;SDS011;67034;43.226;27.932;2023-02-28T01:55:52;6.43;;;4.28;;
77838;SDS011;67034;43.226;27.932;2023-02-28T01:58:19;5.45;;;4.05;;
77838;SDS011;67034;43.226;27.932;2023-02-28T02:00:45;6.55;;;4.40;;
77838;SDS011;67034;43.226;27.932;2023-02-28T02:03:12;5.25;;;3.40;;
77838;SDS011;67034;43.226;27.932;2023-02-28T02:05:40;8.18;;;4.95;;
77838;SDS011;67034;43.226;27.932;2023-02-28T02:08:09;6.07;;;4.38;;
77838;SDS011;67034;43.226;27.932;2023-02-28T02:10:39;6.07;;;3.63;;
77838;SDS011;67034;43.226;27.932;2023-02-28T02:13:22;5.18;;;3.95;;
77838;SDS011;67034;43.226;27.932;2023-02-28T02:15:57;6.22;;;3.58;;
77838;SDS011;67034;43.226;27.932;2023-02-28T02:18:30;4.45;;;2.70;;
77838;SDS011;67034;43.226;27.932;2023-02-28T02:26:50;5.53;;;3.17;;
77838;SDS011;67034;43.226;27.932;2023-02-28T02:29:36;5.43;;;3.85;;
77838;SDS011;67034;43.226;27.932;2023-02-28T02:32:34;5.57;;;3.70;;
77838;SDS011;67034;43.226;27.932;2023-02-28T02:35:20;7.20;;;3.78;;
77838;SDS011;67034;43.226;27.932;2023-02-28T02:37:50;5.20;;;3.50;;
77838;SDS011;67034;43.226;27.932;2023-02-28T02:40:20;6.00;;;3.38;;
77838;SDS011;67034;43.226;27.932;2023-02-28T02:42:50;4.72;;;3.80;;
77838;SDS011;67034;43.226;27.932;2023-02-28T02:45:23;4.57;;;3.55;;
77838;SDS011;67034;43.226;27.932;2023-02-28T02:47:50;6.05;;;3.63;;
77838;SDS011;67034;43.226;27.932;2023-02-28T02:52:48;4.65;;;3.17;;
77838;SDS011;67034;43.226;27.932;2023-02-28T02:55:17;5.32;;;3.50;;
77838;SDS011;67034;43.226;27.932;2023-02-28T02:57:46;4.57;;;2.65;;
77838;SDS011;67034;43.226;27.932;2023-02-28T03:00:15;4.70;;;3.53;;
77838;SDS011;67034;43.226;27.932;2023-02-28T03:02:43;5.57;;;2.92;;
77838;SDS011;67034;43.226;27.932;2023-02-28T03:05:12;4.97;;;3.10;;
77838;SDS011;67034;43.226;27.932;2023-02-28T03:07:43;6.63;;;3.72;;
77838;SDS011;67034;43.226;27.932;2023-02-28T03:10:29;5.47;;;3.50;;
77838;SDS011;67034;43.226;27.932;2023-02-28T03:13:03;4.78;;;2.95;;
77838;SDS011;67034;43.226;27.932;2023-02-28T03:15:45;5.50;;;3.70;;
77838;SDS011;67034;43.226;27.932;2023-02-28T03:18:24;5.35;;;3.30;;
77838;SDS011;67034;43.226;27.932;2023-02-28T03:20:56;5.40;;;3.38;;
77838;SDS011;67034;43.226;27.932;2023-02-28T03:23:29;4.45;;;3.13;;
77838;SDS011;67034;43.226;27.932;2023-02-28T03:26:04;5.80;;;3.83;;
77838;SDS011;67034;43.226;27.932;2023-02-28T03:28:38;3.42;;;2.33;;
77838;SDS011;67034;43.226;27.932;2023-02-28T03:31:12;3.60;;;2.65;;
77838;SDS011;67034;43.226;27.932;2023-02-28T03:33:43;5.35;;;3.70;;
77838;SDS011;67034;43.226;27.932;2023-02-28T03:36:20;5.35;;;3.35;;
77838;SDS011;67034;43.226;27.932;2023-02-28T03:38:49;5.20;;;3.47;;
77838;SDS011;67034;43.226;27.932;2023-02-28T03:41:22;5.30;;;3.65;;
77838;SDS011;67034;43.226;27.932;2023-02-28T03:43:52;6.75;;;3.97;;
77838;SDS011;67034;43.226;27.932;2023-02-28T03:46:21;5.82;;;4.43;;
77838;SDS011;67034;43.226;27.932;2023-02-28T03:48:51;8.40;;;6.13;;
77838;SDS011;67034;43.226;27.932;2023-02-28T03:51:21;8.20;;;6.32;;
77838;SDS011;67034;43.226;27.932;2023-02-28T03:53:49;8.38;;;5.53;;
77838;SDS011;67034;43.226;27.932;2023-02-28T03:56:18;7.72;;;4.95;;
77838;SDS011;67034;43.226;27.932;2023-02-28T03:58:48;8.43;;;5.47;;
77838;SDS011;67034;43.226;27.932;2023-02-28T04:01:20;7.03;;;4.25;;
77838;SDS011;67034;43.226;27.932;2023-02-28T04:03:50;6.55;;;4.15;;
77838;SDS011;67034;43.226;27.932;2023-02-28T04:06:16;6.03;;;4.22;;
77838;SDS011;67034;43.226;27.932;2023-02-28T04:08:44;5.20;;;3.38;;
77838;SDS011;67034;43.226;27.932;2023-02-28T04:11:12;6.05;;;4.05;;
77838;SDS011;67034;43.226;27.932;2023-02-28T04:13:46;6.43;;;4.32;;
77838;SDS011;67034;43.226;27.932;2023-02-28T04:16:12;6.47;;;3.78;;
77838;SDS011;67034;43.226;27.932;2023-02-28T04:18:37;8.23;;;4.53;;
77838;SDS011;67034;43.226;27.932;2023-02-28T04:21:03;6.43;;;3.95;;
77838;SDS011;67034;43.226;27.932;2023-02-28T04:23:29;5.07;;;3.45;;
77838;SDS011;67034;43.226;27.932;2023-02-28T04:25:55;7.70;;;4.55;;
77838;SDS011;67034;43.226;27.932;2023-02-28T04:30:53;6.88;;;4.93;;
77838;SDS011;67034;43.226;27.932;2023-02-28T04:33:20;8.57;;;5.10;;
77838;SDS011;67034;43.226;27.932;2023-02-28T04:35:45;13.90;;;5.88;;
77838;SDS011;67034;43.226;27.932;2023-02-28T04:38:11;6.78;;;4.25;;
77838;SDS011;67034;43.226;27.932;2023-02-28T04:40:37;8.80;;;4.80;;
77838;SDS011;67034;43.226;27.932;2023-02-28T04:45:28;7.90;;;5.45;;
77838;SDS011;67034;43.226;27.932;2023-02-28T04:47:58;12.52;;;5.72;;
77838;SDS011;67034;43.226;27.932;2023-02-28T04:50:24;10.18;;;5.80;;
77838;SDS011;67034;43.226;27.932;2023-02-28T04:52:49;7.25;;;4.80;;
77838;SDS011;67034;43.226;27.932;2023-02-28T04:57:40;12.27;;;7.43;;
77838;SDS011;67034;43.226;27.932;2023-02-28T05:00:08;11.23;;;5.65;;
77838;SDS011;67034;43.226;27.932;2023-02-28T05:02:36;9.48;;;7.25;;
77838;SDS011;67034;43.226;27.932;2023-02-28T05:05:05;15.70;;;8.98;;
77838;SDS011;67034;43.226;27.932;2023-02-28T05:07:30;16.05;;;6.68;;
77838;SDS011;67034;43.226;27.932;2023-02-28T05:09:56;10.35;;;5.55;;
77838;SDS011;67034;43.226;27.932;2023-02-28T05:12:22;19.80;;;10.32;;
77838;SDS011;67034;43.226;27.932;2023-02-28T05:14:47;11.80;;;6.95;;
77838;SDS011;67034;43.226;27.932;2023-02-28T05:17:13;12.00;;;6.75;;
77838;SDS011;67034;43.226;27.932;2023-02-28T05:19:39;13.02;;;6.15;;
77838;SDS011;67034;43.226;27.932;2023-02-28T05:22:11;15.73;;;7.65;;
77838;SDS011;67034;43.226;27.932;2023-02-28T05:24:38;13.93;;;7.90;;
77838;SDS011;67034;43.226;27.932;2023-02-28T05:27:04;10.73;;;5.20;;
77838;SDS011;67034;43.226;27.932;2023-02-28T05:31:55;12.25;;;6.03;;
77838;SDS011;67034;43.226;27.932;2023-02-28T05:34:21;17.85;;;7.43;;
77838;SDS011;67034;43.226;27.932;2023-02-28T05:39:13;9.77;;;5.47;;
77838;SDS011;67034;43.226;27.932;2023-02-28T05:41:40;15.88;;;9.18;;
77838;SDS011;67034;43.226;27.932;2023-02-28T05:44:06;13.65;;;6.80;;
77838;SDS011;67034;43.226;27.932;2023-02-28T05:46:32;12.73;;;6.72;;
77838;SDS011;67034;43.226;27.932;2023-02-28T05:48:57;12.90;;;6.95;;
77838;SDS011;67034;43.226;27.932;2023-02-28T05:51:25;18.23;;;7.53;;
77838;SDS011;67034;43.226;27.932;2023-02-28T05:53:51;10.45;;;5.70;;
77838;SDS011;67034;43.226;27.932;2023-02-28T05:56:18;12.82;;;7.10;;
77838;SDS011;67034;43.226;27.932;2023-02-28T05:58:43;12.73;;;7.25;;
77838;SDS011;67034;43.226;27.932;2023-02-28T06:01:20;20.58;;;7.85;;
77838;SDS011;67034;43.226;27.932;2023-02-28T06:03:47;16.92;;;8.38;;
77838;SDS011;67034;43.226;27.932;2023-02-28T06:06:13;13.55;;;6.78;;
77838;SDS011;67034;43.226;27.932;2023-02-28T06:11:04;22.77;;;10.85;;
77838;SDS011;67034;43.226;27.932;2023-02-28T06:13:33;22.48;;;13.02;;
77838;SDS011;67034;43.226;27.932;2023-02-28T06:16:00;18.60;;;8.07;;
77838;SDS011;67034;43.226;27.932;2023-02-28T06:18:26;18.30;;;8.93;;
77838;SDS011;67034;43.226;27.932;2023-02-28T06:20:52;24.25;;;11.13;;
77838;SDS011;67034;43.226;27.932;2023-02-28T06:23:19;14.80;;;6.78;;
77838;SDS011;67034;43.226;27.932;2023-02-28T06:25:45;24.42;;;13.52;;
77838;SDS011;67034;43.226;27.932;2023-02-28T06:28:11;18.65;;;8.95;;
77838;SDS011;67034;43.226;27.932;2023-02-28T06:30:38;16.33;;;7.78;;
77838;SDS011;67034;43.226;27.932;2023-02-28T06:33:04;12.05;;;5.68;;
77838;SDS011;67034;43.226;27.932;2023-02-28T06:35:30;16.77;;;6.55;;
77838;SDS011;67034;43.226;27.932;2023-02-28T06:37:55;15.80;;;6.28;;
77838;SDS011;67034;43.226;27.932;2023-02-28T06:40:23;18.33;;;8.25;;
77838;SDS011;67034;43.226;27.932;2023-02-28T06:42:49;16.13;;;7.03;;
77838;SDS011;67034;43.226;27.932;2023-02-28T06:45:15;18.33;;;7.82;;
77838;SDS011;67034;43.226;27.932;2023-02-28T06:47:42;14.85;;;7.72;;
77838;SDS011;67034;43.226;27.932;2023-02-28T06:50:09;17.05;;;9.05;;
77838;SDS011;67034;43.226;27.932;2023-02-28T06:52:36;14.40;;;6.53;;
77838;SDS011;67034;43.226;27.932;2023-02-28T06:55:03;17.67;;;8.55;;
77838;SDS011;67034;43.226;27.932;2023-02-28T06:57:29;19.17;;;7.80;;
77838;SDS011;67034;43.226;27.932;2023-02-28T06:59:58;13.85;;;7.30;;
77838;SDS011;67034;43.226;27.932;2023-02-28T07:02:24;16.45;;;8.57;;
77838;SDS011;67034;43.226;27.932;2023-02-28T07:04:51;17.02;;;9.05;;
77838;SDS011;67034;43.226;27.932;2023-02-28T07:07:17;21.98;;;10.07;;
77838;SDS011;67034;43.226;27.932;2023-02-28T07:09:43;12.38;;;6.78;;
77838;SDS011;67034;43.226;27.932;2023-02-28T07:12:09;14.50;;;6.90;;
77838;SDS011;67034;43.226;27.932;2023-02-28T07:14:36;9.43;;;6.15;;
77838;SDS011;67034;43.226;27.932;2023-02-28T07:17:01;14.52;;;7.03;;
77838;SDS011;67034;43.226;27.932;2023-02-28T07:19:27;16.58;;;10.82;;
77838;SDS011;67034;43.226;27.932;2023-02-28T07:24:20;13.32;;;6.70;;
77838;SDS011;67034;43.226;27.932;2023-02-28T07:26:45;10.68;;;5.93;;
77838;SDS011;67034;43.226;27.932;2023-02-28T07:29:11;12.30;;;7.70;;
77838;SDS011;67034;43.226;27.932;2023-02-28T07:31:37;13.13;;;6.75;;
77838;SDS011;67034;43.226;27.932;2023-02-28T07:36:28;14.40;;;7.45;;
77838;SDS011;67034;43.226;27.932;2023-02-28T07:38:55;13.45;;;6.57;;
77838;SDS011;67034;43.226;27.932;2023-02-28T07:41:21;11.75;;;6.28;;
77838;SDS011;67034;43.226;27.932;2023-02-28T07:43:49;12.13;;;6.72;;
77838;SDS011;67034;43.226;27.932;2023-02-28T07:46:15;12.52;;;5.88;;
77838;SDS011;67034;43.226;27.932;2023-02-28T07:48:42;11.10;;;6.75;;
77838;SDS011;67034;43.226;27.932;2023-02-28T07:51:08;13.88;;;6.47;;
77838;SDS011;67034;43.226;27.932;2023-02-28T07:53:34;10.85;;;5.82;;
77838;SDS011;67034;43.226;27.932;2023-02-28T07:58:28;12.52;;;8.45;;
77838;SDS011;67034;43.226;27.932;2023-02-28T08:00:54;16.00;;;9.68;;
77838;SDS011;67034;43.226;27.932;2023-02-28T08:05:47;6.50;;;4.38;;
77838;SDS011;67034;43.226;27.932;2023-02-28T08:13:05;9.70;;;5.43;;
77838;SDS011;67034;43.226;27.932;2023-02-28T08:15:30;11.32;;;5.57;;
77838;SDS011;67034;43.226;27.932;2023-02-28T08:17:56;12.27;;;6.47;;
77838;SDS011;67034;43.226;27.932;2023-02-28T08:20:22;9.45;;;5.97;;
77838;SDS011;67034;43.226;27.932;2023-02-28T08:22:48;12.80;;;6.40;;
77838;SDS011;67034;43.226;27.932;2023-02-28T08:30:08;10.77;;;5.35;;
77838;SDS011;67034;43.226;27.932;2023-02-28T08:32:36;12.65;;;6.53;;
77838;SDS011;67034;43.226;27.932;2023-02-28T08:37:29;8.75;;;5.13;;
77838;SDS011;67034;43.226;27.932;2023-02-28T08:42:20;8.48;;;5.38;;
77838;SDS011;67034;43.226;27.932;2023-02-28T08:47:13;10.40;;;5.93;;
77838;SDS011;67034;43.226;27.932;2023-02-28T08:49:39;13.45;;;7.88;;
77838;SDS011;67034;43.226;27.932;2023-02-28T08:54:31;9.20;;;4.75;;
77838;SDS011;67034;43.226;27.932;2023-02-28T08:56:58;9.88;;;5.38;;
77838;SDS011;67034;43.226;27.932;2023-02-28T09:01:49;9.77;;;4.65;;
77838;SDS011;67034;43.226;27.932;2023-02-28T09:04:16;9.15;;;5.88;;
77838;SDS011;67034;43.226;27.932;2023-02-28T09:06:42;9.13;;;5.57;;
77838;SDS011;67034;43.226;27.932;2023-02-28T09:09:08;7.65;;;5.10;;
77838;SDS011;67034;43.226;27.932;2023-02-28T09:11:34;8.33;;;4.53;;
77838;SDS011;67034;43.226;27.932;2023-02-28T09:14:01;7.18;;;4.50;;
77838;SDS011;67034;43.226;27.932;2023-02-28T09:16:28;9.43;;;5.05;;
77838;SDS011;67034;43.226;27.932;2023-02-28T09:18:56;8.13;;;5.15;;
77838;SDS011;67034;43.226;27.932;2023-02-28T09:21:23;10.30;;;5.82;;
77838;SDS011;67034;43.226;27.932;2023-02-28T09:23:52;12.70;;;6.38;;
77838;SDS011;67034;43.226;27.932;2023-02-28T09:26:18;9.10;;;5.95;;
77838;SDS011;67034;43.226;27.932;2023-02-28T09:28:45;9.00;;;5.05;;
77838;SDS011;67034;43.226;27.932;2023-02-28T09:33:37;8.52;;;5.38;;
77838;SDS011;67034;43.226;27.932;2023-02-28T09:36:03;9.50;;;4.97;;
77838;SDS011;67034;43.226;27.932;2023-02-28T09:38:31;8.05;;;5.30;;
77838;SDS011;67034;43.226;27.932;2023-02-28T09:40:57;8.82;;;5.05;;
77838;SDS011;67034;43.226;27.932;2023-02-28T09:43:26;7.75;;;4.97;;
77838;SDS011;67034;43.226;27.932;2023-02-28T09:45:55;9.45;;;5.68;;
77838;SDS011;67034;43.226;27.932;2023-02-28T09:48:27;15.85;;;8.02;;
77838;SDS011;67034;43.226;27.932;2023-02-28T09:50:59;11.50;;;6.00;;
77838;SDS011;67034;43.226;27.932;2023-02-28T09:53:29;17.75;;;6.72;;
77838;SDS011;67034;43.226;27.932;2023-02-28T09:56:01;8.70;;;5.60;;
77838;SDS011;67034;43.226;27.932;2023-02-28T09:58:31;9.32;;;5.55;;
77838;SDS011;67034;43.226;27.932;2023-02-28T10:01:03;9.13;;;5.22;;
77838;SDS011;67034;43.226;27.932;2023-02-28T10:03:35;20.73;;;12.05;;
77838;SDS011;67034;43.226;27.932;2023-02-28T10:06:06;14.70;;;8.18;;
77838;SDS011;67034;43.226;27.932;2023-02-28T10:08:40;9.65;;;4.93;;
77838;SDS011;67034;43.226;27.932;2023-02-28T10:11:11;9.45;;;5.38;;
77838;SDS011;67034;43.226;27.932;2023-02-28T10:13:45;7.80;;;4.63;;
77838;SDS011;67034;43.226;27.932;2023-02-28T10:16:16;7.85;;;5.20;;
77838;SDS011;67034;43.226;27.932;2023-02-28T10:18:46;8.43;;;4.68;;
77838;SDS011;67034;43.226;27.932;2023-02-28T10:21:17;7.43;;;4.55;;
77838;SDS011;67034;43.226;27.932;2023-02-28T10:23:47;7.55;;;5.18;;
77838;SDS011;67034;43.226;27.932;2023-02-28T10:26:14;5.93;;;4.00;;
77838;SDS011;67034;43.226;27.932;2023-02-28T10:28:42;6.55;;;4.22;;
77838;SDS011;67034;43.226;27.932;2023-02-28T10:33:36;6.80;;;4.22;;
77838;SDS011;67034;43.226;27.932;2023-02-28T10:36:03;7.32;;;4.93;;
77838;SDS011;67034;43.226;27.932;2023-02-28T10:38:32;8.95;;;4.78;;
77838;SDS011;67034;43.226;27.932;2023-02-28T10:41:05;7.07;;;4.53;;
77838;SDS011;67034;43.226;27.932;2023-02-28T10:43:33;9.38;;;5.50;;
77838;SDS011;67034;43.226;27.932;2023-02-28T10:46:01;7.07;;;4.60;;
77838;SDS011;67034;43.226;27.932;2023-02-28T10:48:30;7.30;;;4.60;;
77838;SDS011;67034;43.226;27.932;2023-02-28T10:50:58;10.00;;;4.97;;
77838;SDS011;67034;43.226;27.932;2023-02-28T10:53:33;9.10;;;4.90;;
77838;SDS011;67034;43.226;27.932;2023-02-28T10:56:02;11.02;;;5.63;;
77838;SDS011;67034;43.226;27.932;2023-02-28T10:58:31;8.65;;;5.53;;
77838;SDS011;67034;43.226;27.932;2023-02-28T11:01:12;9.18;;;4.45;;
77838;SDS011;67034;43.226;27.932;2023-02-28T11:03:39;7.40;;;4.55;;
77838;SDS011;67034;43.226;27.932;2023-02-28T11:06:06;8.18;;;5.15;;
77838;SDS011;67034;43.226;27.932;2023-02-28T11:08:33;11.13;;;6.05;;
77838;SDS011;67034;43.226;27.932;2023-02-28T11:11:02;12.93;;;6.55;;
77838;SDS011;67034;43.226;27.932;2023-02-28T11:13:33;13.13;;;6.68;;
77838;SDS011;67034;43.226;27.932;2023-02-28T11:16:00;14.52;;;8.15;;
77838;SDS011;67034;43.226;27.932;2023-02-28T11:18:29;10.40;;;5.93;;
77838;SDS011;67034;43.226;27.932;2023-02-28T11:20:59;8.30;;;4.75;;
77838;SDS011;67034;43.226;27.932;2023-02-28T11:23:27;8.63;;;5.25;;
77838;SDS011;67034;43.226;27.932;2023-02-28T11:25:55;11.30;;;5.88;;
77838;SDS011;67034;43.226;27.932;2023-02-28T11:28:24;9.30;;;5.68;;
77838;SDS011;67034;43.226;27.932;2023-02-28T11:31:01;11.38;;;5.85;;
77838;SDS011;67034;43.226;27.932;2023-02-28T11:33:46;11.65;;;5.60;;
77838;SDS011;67034;43.226;27.932;2023-02-28T11:36:16;10.40;;;5.03;;
77838;SDS011;67034;43.226;27.932;2023-02-28T11:38:44;10.48;;;5.88;;
77838;SDS011;67034;43.226;27.932;2023-02-28T11:41:24;7.82;;;4.65;;
77838;SDS011;67034;43.226;27.932;2023-02-28T11:44:20;16.17;;;7.30;;
77838;SDS011;67034;43.226;27.932;2023-02-28T11:46:56;9.35;;;5.07;;
77838;SDS011;67034;43.226;27.932;2023-02-28T11:49:34;9.05;;;5.43;;
77838;SDS011;67034;43.226;27.932;2023-02-28T11:52:06;8.43;;;4.45;;
77838;SDS011;67034;43.226;27.932;2023-02-28T11:54:50;7.45;;;4.25;;
77838;SDS011;67034;43.226;27.932;2023-02-28T11:57:36;6.78;;;4.45;;
77838;SDS011;67034;43.226;27.932;2023-02-28T12:00:19;8.70;;;5.25;;
77838;SDS011;67034;43.226;27.932;2023-02-28T12:03:02;7.60;;;4.88;;
77838;SDS011;67034;43.226;27.932;2023-02-28T12:05:41;11.27;;;5.78;;
77838;SDS011;67034;43.226;27.932;2023-02-28T12:08:15;9.52;;;5.68;;
77838;SDS011;67034;43.226;27.932;2023-02-28T12:10:54;7.82;;;5.70;;
77838;SDS011;67034;43.226;27.932;2023-02-28T12:13:29;9.25;;;5.20;;
77838;SDS011;67034;43.226;27.932;2023-02-28T12:21:55;7.97;;;5.00;;
77838;SDS011;67034;43.226;27.932;2023-02-28T12:24:47;6.65;;;4.80;;
77838;SDS011;67034;43.226;27.932;2023-02-28T12:27:23;9.35;;;5.63;;
77838;SDS011;67034;43.226;27.932;2023-02-28T12:29:54;8.27;;;5.17;;
77838;SDS011;67034;43.226;27.932;2023-02-28T12:32:24;10.60;;;6.68;;
77838;SDS011;67034;43.226;27.932;2023-02-28T12:34:57;14.57;;;8.55;;
77838;SDS011;67034;43.226;27.932;2023-02-28T12:37:28;12.80;;;6.53;;
77838;SDS011;67034;43.226;27.932;2023-02-28T12:40:00;10.18;;;5.93;;
77838;SDS011;67034;43.226;27.932;2023-02-28T12:42:31;10.13;;;6.70;;
77838;SDS011;67034;43.226;27.932;2023-02-28T12:45:02;13.68;;;8.35;;
77838;SDS011;67034;43.226;27.932;2023-02-28T12:47:32;15.57;;;7.47;;
77838;SDS011;67034;43.226;27.932;2023-02-28T12:52:29;8.18;;;5.22;;
77838;SDS011;67034;43.226;27.932;2023-02-28T12:55:03;10.35;;;5.45;;
77838;SDS011;67034;43.226;27.932;2023-02-28T12:57:34;12.57;;;6.05;;
77838;SDS011;67034;43.226;27.932;2023-02-28T13:00:09;13.47;;;6.83;;
77838;SDS011;67034;43.226;27.932;2023-02-28T13:02:45;11.13;;;5.88;;
77838;SDS011;67034;43.226;27.932;2023-02-28T13:05:31;13.35;;;7.60;;
77838;SDS011;67034;43.226;27.932;2023-02-28T13:11:24;13.43;;;7.03;;
77838;SDS011;67034;43.226;27.932;2023-02-28T13:14:00;12.05;;;7.57;;
77838;SDS011;67034;43.226;27.932;2023-02-28T13:16:28;9.95;;;5.80;;
77838;SDS011;67034;43.226;27.932;2023-02-28T13:19:16;9.45;;;4.72;;
77838;SDS011;67034;43.226;27.932;2023-02-28T13:21:45;11.32;;;6.95;;
77838;SDS011;67034;43.226;27.932;2023-02-28T13:24:14;18.00;;;9.07;;
77838;SDS011;67034;43.226;27.932;2023-02-28T13:33:28;10.27;;;5.82;;
77838;SDS011;67034;43.226;27.932;2023-02-28T13:38:50;10.77;;;7.18;;
77838;SDS011;67034;43.226;27.932;2023-02-28T13:41:41;16.70;;;9.23;;
77838;SDS011;67034;43.226;27.932;2023-02-28T13:44:14;11.80;;;6.18;;
77838;SDS011;67034;43.226;27.932;2023-02-28T13:49:47;12.00;;;6.85;;
77838;SDS011;67034;43.226;27.932;2023-02-28T13:52:15;12.48;;;6.38;;
77838;SDS011;67034;43.226;27.932;2023-02-28T13:54:49;11.23;;;6.20;;
77838;SDS011;67034;43.226;27.932;2023-02-28T13:57:27;12.55;;;6.47;;
77838;SDS011;67034;43.226;27.932;2023-02-28T14:00:05;13.45;;;7.53;;
77838;SDS011;67034;43.226;27.932;2023-02-28T14:02:47;13.25;;;7.45;;
77838;SDS011;67034;43.226;27.932;2023-02-28T14:05:34;15.55;;;7.03;;
77838;SDS011;67034;43.226;27.932;2023-02-28T14:08:04;14.57;;;8.15;;
77838;SDS011;67034;43.226;27.932;2023-02-28T14:10:34;16.23;;;8.02;;
77838;SDS011;67034;43.226;27.932;2023-02-28T14:13:12;14.10;;;6.78;;
77838;SDS011;67034;43.226;27.932;2023-02-28T14:16:01;14.70;;;6.70;;
77838;SDS011;67034;43.226;27.932;2023-02-28T14:18:29;12.35;;;6.95;;
77838;SDS011;67034;43.226;27.932;2023-02-28T14:32:34;15.93;;;7.50;;
77838;SDS011;67034;43.226;27.932;2023-02-28T14:35:11;11.88;;;6.65;;
77838;SDS011;67034;43.226;27.932;2023-02-28T14:37:44;13.38;;;7.65;;
77838;SDS011;67034;43.226;27.932;2023-02-28T14:42:45;12.00;;;7.72;;
77838;SDS011;67034;43.226;27.932;2023-02-28T14:45:17;11.88;;;5.88;;
77838;SDS011;67034;43.226;27.932;2023-02-28T14:47:45;11.15;;;5.95;;
77838;SDS011;67034;43.226;27.932;2023-02-28T14:50:17;18.88;;;10.40;;
77838;SDS011;67034;43.226;27.932;2023-02-28T14:52:44;13.07;;;6.40;;
77838;SDS011;67034;43.226;27.932;2023-02-28T14:55:12;14.95;;;8.43;;
77838;SDS011;67034;43.226;27.932;2023-02-28T14:57:40;17.60;;;7.28;;
77838;SDS011;67034;43.226;27.932;2023-02-28T15:00:11;12.40;;;6.93;;
77838;SDS011;67034;43.226;27.932;2023-02-28T15:02:40;12.27;;;6.88;;
77838;SDS011;67034;43.226;27.932;2023-02-28T15:05:16;12.23;;;7.55;;
77838;SDS011;67034;43.226;27.932;2023-02-28T15:07:48;9.80;;;6.33;;
77838;SDS011;67034;43.226;27.932;2023-02-28T15:10:25;16.77;;;8.15;;
77838;SDS011;67034;43.226;27.932;2023-02-28T15:12:52;15.52;;;7.55;;
77838;SDS011;67034;43.226;27.932;2023-02-28T15:15:21;12.27;;;6.82;;
77838;SDS011;67034;43.226;27.932;2023-02-28T15:17:50;16.20;;;7.55;;
77838;SDS011;67034;43.226;27.932;2023-02-28T15:20:20;9.90;;;6.03;;
77838;SDS011;67034;43.226;27.932;2023-02-28T15:22:47;11.52;;;5.95;;
77838;SDS011;67034;43.226;27.932;2023-02-28T15:25:15;13.18;;;6.63;;
77838;SDS011;67034;43.226;27.932;2023-02-28T15:27:45;17.13;;;9.02;;
77838;SDS011;67034;43.226;27.932;2023-02-28T15:30:14;14.57;;;8.38;;
77838;SDS011;67034;43.226;27.932;2023-02-28T15:32:42;15.15;;;8.27;;
77838;SDS011;67034;43.226;27.932;2023-02-28T15:35:18;14.38;;;8.15;;
77838;SDS011;67034;43.226;27.932;2023-02-28T15:37:53;11.07;;;5.95;;
77838;SDS011;67034;43.226;27.932;2023-02-28T15:40:22;9.10;;;5.65;;
77838;SDS011;67034;43.226;27.932;2023-02-28T15:45:41;11.05;;;5.43;;
77838;SDS011;67034;43.226;27.932;2023-02-28T15:48:15;9.88;;;6.10;;
77838;SDS011;67034;43.226;27.932;2023-02-28T15:50:46;11.65;;;6.13;;
77838;SDS011;67034;43.226;27.932;2023-02-28T15:53:15;12.35;;;6.55;;
77838;SDS011;67034;43.226;27.932;2023-02-28T15:55:43;10.95;;;5.57;;
77838;SDS011;67034;43.226;27.932;2023-02-28T15:58:10;27.05;;;16.77;;
77838;SDS011;67034;43.226;27.932;2023-02-28T16:00:38;18.33;;;9.77;;
77838;SDS011;67034;43.226;27.932;2023-02-28T16:08:47;17.65;;;10.13;;
77838;SDS011;67034;43.226;27.932;2023-02-28T16:11:13;18.98;;;9.93;;
77838;SDS011;67034;43.226;27.932;2023-02-28T16:13:40;16.70;;;9.05;;
77838;SDS011;67034;43.226;27.932;2023-02-28T16:16:06;17.30;;;7.82;;
77838;SDS011;67034;43.226;27.932;2023-02-28T16:20:57;14.40;;;6.72;;
77838;SDS011;67034;43.226;27.932;2023-02-28T16:23:24;11.93;;;6.15;;
77838;SDS011;67034;43.226;27.932;2023-02-28T16:25:50;16.35;;;7.70;;
77838;SDS011;67034;43.226;27.932;2023-02-28T16:28:18;10.82;;;5.65;;
77838;SDS011;67034;43.226;27.932;2023-02-28T16:30:45;10.35;;;5.60;;
77838;SDS011;67034;43.226;27.932;2023-02-28T16:38:03;15.13;;;5.80;;
77838;SDS011;67034;43.226;27.932;2023-02-28T16:40:33;10.70;;;5.63;;
77838;SDS011;67034;43.226;27.932;2023-02-28T16:43:00;13.05;;;6.32;;
77838;SDS011;67034;43.226;27.932;2023-02-28T16:45:27;10.73;;;6.43;;
77838;SDS011;67034;43.226;27.932;2023-02-28T16:47:53;9.30;;;5.85;;
77838;SDS011;67034;43.226;27.932;2023-02-28T16:50:20;9.80;;;5.97;;
77838;SDS011;67034;43.226;27.932;2023-02-28T16:52:47;13.88;;;7.22;;
77838;SDS011;67034;43.226;27.932;2023-02-28T16:55:14;10.10;;;5.78;;
77838;SDS011;67034;43.226;27.932;2023-02-28T16:57:42;11.95;;;6.22;;
77838;SDS011;67034;43.226;27.932;2023-02-28T17:00:10;11.27;;;5.97;;
77838;SDS011;67034;43.226;27.932;2023-02-28T17:02:38;11.88;;;5.55;;
77838;SDS011;67034;43.226;27.932;2023-02-28T17:05:04;10.48;;;6.53;;
77838;SDS011;67034;43.226;27.932;2023-02-28T17:07:31;12.20;;;5.93;;
77838;SDS011;67034;43.226;27.932;2023-02-28T17:09:57;13.25;;;7.47;;
77838;SDS011;67034;43.226;27.932;2023-02-28T17:12:24;11.23;;;6.03;;
77838;SDS011;67034;43.226;27.932;2023-02-28T17:14:52;10.88;;;6.15;;
77838;SDS011;67034;43.226;27.932;2023-02-28T17:17:20;10.32;;;5.85;;